Time;durP1;ratioP1;P1;durP2;ratioP2;P2;SDS_P1;SDS_P2;PMS_P1;PMS_P2;Temp;Humidity;BMP_temperature;BMP_pressure;BME280_temperature;BME280_humidity;BME280_pressure;Samples;Min_cycle;Max_cycle;Signal;HPM_P1;HPM_P2
2022/09/29 00:01:47;;;;;;;;;3.25;3.25;;;;;7.46;82.34;98317.03;5034119;28;8848;-60
2022/09/29 00:04:14;;;;;;;;;2.00;2.00;;;;;7.45;82.39;98315.38;5034206;28;8833;-62
2022/09/29 00:06:42;;;;;;;;;3.00;3.00;;;;;7.44;82.42;98308.41;5034063;28;8837;-61
2022/09/29 00:09:10;;;;;;;;;3.00;3.00;;;;;7.43;82.39;98317.34;5033623;28;8812;-60
2022/09/29 00:11:38;;;;;;;;;3.50;3.00;;;;;7.39;82.11;98310.63;5032993;28;8852;-61
2022/09/29 00:14:05;;;;;;;;;4.40;4.40;;;;;7.37;82.43;98312.59;5033024;28;8841;-60
2022/09/29 00:16:33;;;;;;;;;2.25;2.00;;;;;7.36;82.74;98314.41;5033339;28;8825;-60
2022/09/29 00:19:01;;;;;;;;;1.00;1.00;;;;;7.34;82.64;98318.19;5032545;28;9676;-60
2022/09/29 00:21:29;;;;;;;;;3.60;3.40;;;;;7.35;82.13;98309.28;5032158;28;8836;-60
2022/09/29 00:23:57;;;;;;;;;6.25;5.50;;;;;7.38;81.96;98308.97;5033611;28;8829;-60
2022/09/29 00:26:24;;;;;;;;;3.75;3.75;;;;;7.40;82.28;98310.50;5033042;28;8833;-60
2022/09/29 00:28:52;;;;;;;;;4.00;4.00;;;;;7.41;82.28;98301.59;5033148;28;8825;-61
2022/09/29 00:31:20;;;;;;;;;2.00;2.00;;;;;7.42;81.98;98305.09;5033046;28;8845;-60
2022/09/29 00:33:47;;;;;;;;;3.00;3.00;;;;;7.42;81.89;98305.91;5033428;28;8935;-60
2022/09/29 00:36:15;;;;;;;;;4.50;3.50;;;;;7.41;82.26;98304.22;5033007;28;8840;-60
2022/09/29 00:38:43;;;;;;;;;5.00;5.00;;;;;7.41;82.15;98303.38;5033134;28;8845;-60
2022/09/29 00:41:10;;;;;;;;;4.80;4.80;;;;;7.39;82.29;98308.00;5032651;28;8915;-59
2022/09/29 00:43:38;;;;;;;;;1.00;1.00;;;;;7.35;82.35;98302.16;5033595;28;8837;-60
2022/09/29 00:46:06;;;;;;;;;3.20;3.20;;;;;7.31;81.94;98295.47;5033176;28;8882;-60
2022/09/29 00:48:34;;;;;;;;;4.00;3.25;;;;;7.29;82.25;98300.06;5033422;28;8901;-60
2022/09/29 00:51:02;;;;;;;;;3.75;3.00;;;;;7.26;82.07;98300.34;5033002;28;8893;-60
2022/09/29 00:53:29;;;;;;;;;6.00;3.00;;;;;7.27;82.14;98296.72;5032962;28;8860;-60
2022/09/29 00:55:57;;;;;;;;;4.00;3.75;;;;;7.27;82.41;98301.22;5033071;28;8840;-61
2022/09/29 00:58:25;;;;;;;;;5.00;5.00;;;;;7.27;82.25;98301.22;5032969;28;8828;-61
2022/09/29 01:00:54;;;;;;;;;6.00;4.40;;;;;7.26;82.22;98303.00;5032675;28;8825;-62
2022/09/29 01:03:21;;;;;;;;;4.80;4.40;;;;;7.23;81.82;98300.66;5032966;28;8825;-60
2022/09/29 01:05:49;;;;;;;;;3.60;3.60;;;;;7.20;82.10;98298.28;5032750;28;8833;-61
2022/09/29 01:08:17;;;;;;;;;3.00;3.00;;;;;7.17;82.32;98297.72;5032890;28;8821;-61
2022/09/29 01:10:45;;;;;;;;;1.00;1.00;;;;;7.12;82.58;98300.78;5032983;28;8853;-60
2022/09/29 01:13:12;;;;;;;;;4.80;3.60;;;;;7.08;82.32;98301.22;5032768;28;8845;-61
2022/09/29 01:15:40;;;;;;;;;4.00;4.00;;;;;7.03;82.59;98303.44;5032560;28;8821;-61
2022/09/29 01:18:08;;;;;;;;;4.40;4.00;;;;;6.96;82.76;98305.00;5032526;28;8839;-61
2022/09/29 01:20:36;;;;;;;;;6.60;6.00;;;;;6.91;82.45;98302.75;5032032;28;8841;-61
2022/09/29 01:23:03;;;;;;;;;3.80;3.80;;;;;6.88;82.69;98302.19;5032701;28;8845;-60
2022/09/29 01:25:31;;;;;;;;;1.80;1.80;;;;;6.85;82.99;98303.31;5032340;28;8849;-61
2022/09/29 01:27:59;;;;;;;;;7.00;6.80;;;;;6.80;82.96;98309.97;5032746;28;8893;-61
2022/09/29 01:30:26;;;;;;;;;3.80;3.00;;;;;6.77;82.63;98308.47;5032585;28;8913;-61
2022/09/29 01:32:54;;;;;;;;;3.60;3.60;;;;;6.74;82.35;98314.03;5032660;28;8873;-61
2022/09/29 01:35:22;;;;;;;;;5.60;4.80;;;;;6.70;82.76;98320.59;5032087;28;8837;-61
2022/09/29 01:37:50;;;;;;;;;4.40;3.80;;;;;6.70;82.73;98319.72;5032424;28;8909;-63
2022/09/29 01:40:17;;;;;;;;;4.80;4.00;;;;;6.67;82.97;98317.38;5032068;28;8856;-61
2022/09/29 01:42:45;;;;;;;;;6.40;6.20;;;;;6.66;83.20;98321.81;5032601;28;9518;-61
2022/09/29 01:45:12;;;;;;;;;6.40;6.40;;;;;6.66;83.30;98326.28;5032090;28;8841;-61
2022/09/29 01:47:40;;;;;;;;;6.20;4.00;;;;;6.67;82.68;98327.94;5032625;28;8937;-59
2022/09/29 01:50:08;;;;;;;;;4.00;3.00;;;;;6.65;83.11;98320.16;5032164;28;8817;-61
2022/09/29 01:52:36;;;;;;;;;6.40;4.80;;;;;6.65;82.60;98324.59;5031909;28;8821;-61
2022/09/29 01:55:03;;;;;;;;;6.20;6.00;;;;;6.63;82.79;98321.25;5031535;28;8928;-61
2022/09/29 01:57:31;;;;;;;;;2.00;1.40;;;;;6.66;82.60;98321.00;5031741;28;8909;-60
2022/09/29 02:00:00;;;;;;;;;6.20;5.60;;;;;6.66;82.45;98324.47;5032002;28;9491;-60
2022/09/29 02:02:28;;;;;;;;;6.60;4.00;;;;;6.70;82.47;98327.66;5031874;28;8817;-61
2022/09/29 02:04:56;;;;;;;;;8.00;5.80;;;;;6.70;82.63;98317.09;5031249;28;8832;-60
2022/09/29 02:07:23;;;;;;;;;5.20;4.40;;;;;6.70;82.91;98310.00;5031368;28;8905;-60
2022/09/29 02:09:51;;;;;;;;;6.60;6.60;;;;;6.69;83.27;98316.25;5031556;28;8925;-60
2022/09/29 02:12:19;;;;;;;;;3.00;3.00;;;;;6.70;83.01;98322.38;5031660;28;8833;-61
2022/09/29 02:14:46;;;;;;;;;6.20;6.20;;;;;6.73;82.66;98322.09;5032303;28;9483;-61
2022/09/29 02:17:18;;;;;;;;;1.40;1.40;;;;;6.71;82.69;98324.03;5031630;28;8829;-61
2022/09/29 02:19:46;;;;;;;;;1.80;1.80;;;;;6.70;82.97;98322.38;5031817;28;8853;-61
2022/09/29 02:22:14;;;;;;;;;3.40;3.00;;;;;6.67;83.24;98320.03;5031767;28;8825;-60
2022/09/29 02:24:41;;;;;;;;;4.00;4.00;;;;;6.63;82.76;98322.09;5031499;28;8821;-61
2022/09/29 02:27:09;;;;;;;;;4.40;4.40;;;;;6.64;82.49;98325.56;5031539;28;8833;-60
2022/09/29 02:29:37;;;;;;;;;3.60;3.60;;;;;6.63;82.64;98329.19;5031425;28;8821;-61
2022/09/29 02:32:05;;;;;;;;;4.00;3.80;;;;;6.62;83.00;98328.38;5031574;28;8889;-61
2022/09/29 02:34:32;;;;;;;;;4.00;4.00;;;;;6.61;83.01;98326.66;5035111;28;8829;-60
2022/09/29 02:37:00;;;;;;;;;4.40;3.00;;;;;6.61;82.58;98323.22;5035359;28;8809;-60
2022/09/29 02:39:28;;;;;;;;;3.20;3.20;;;;;6.62;82.81;98331.00;5035515;28;8845;-61
2022/09/29 02:41:55;;;;;;;;;5.20;4.80;;;;;6.63;82.38;98329.19;5035422;28;8877;-61
2022/09/29 02:44:23;;;;;;;;;4.00;4.00;;;;;6.63;82.87;98326.53;5035590;28;8885;-60
2022/09/29 02:46:51;;;;;;;;;3.40;3.00;;;;;6.65;82.67;98320.16;5035236;28;8820;-60
2022/09/29 02:49:19;;;;;;;;;4.80;3.40;;;;;6.67;82.43;98323.47;5035191;28;8837;-61
2022/09/29 02:51:47;;;;;;;;;6.00;6.00;;;;;6.68;82.51;98322.50;5035427;28;8829;-61
2022/09/29 02:54:15;;;;;;;;;6.00;6.00;;;;;6.71;82.57;98339.91;5034036;28;8905;-61
2022/09/29 02:56:42;;;;;;;;;6.20;5.60;;;;;6.70;81.77;98323.22;5035321;28;8831;-61
2022/09/29 02:59:10;;;;;;;;;5.60;5.60;;;;;6.71;82.76;98329.34;5035482;28;8825;-61
2022/09/29 03:01:38;;;;;;;;;4.00;4.00;;;;;6.73;82.48;98333.53;5035476;28;8821;-61
2022/09/29 03:04:07;;;;;;;;;4.40;4.00;;;;;6.75;82.48;98336.03;5035379;28;8845;-61
2022/09/29 03:06:35;;;;;;;;;5.20;3.80;;;;;6.75;81.91;98328.91;5035242;28;8817;-60
2022/09/29 03:09:02;;;;;;;;;5.60;5.60;;;;;6.76;82.13;98332.41;5034969;28;8832;-60
2022/09/29 03:11:30;;;;;;;;;3.00;3.00;;;;;6.77;82.01;98329.63;5035201;28;8976;-61
2022/09/29 03:13:58;;;;;;;;;7.40;5.60;;;;;6.76;82.08;98332.41;5034899;28;8825;-61
2022/09/29 03:16:25;;;;;;;;;5.20;4.40;;;;;6.72;82.01;98331.84;5034908;28;8837;-61
2022/09/29 03:18:54;;;;;;;;;4.00;4.00;;;;;6.71;82.56;98326.69;5035048;28;8853;-61
2022/09/29 03:21:21;;;;;;;;;4.40;4.00;;;;;6.68;82.64;98329.63;5034956;28;8840;-60
2022/09/29 03:23:49;;;;;;;;;4.00;4.00;;;;;6.63;81.83;98329.19;5034967;28;8901;-61
2022/09/29 03:26:24;;;;;;;;;4.00;4.00;;;;;6.56;82.60;98326.25;5035121;28;8824;-60
2022/09/29 03:28:52;;;;;;;;;4.00;4.00;;;;;6.51;82.33;98328.47;5034372;28;8829;-60
2022/09/29 03:31:19;;;;;;;;;3.80;3.80;;;;;6.46;82.48;98324.56;5034321;28;8908;-62
2022/09/29 03:33:47;;;;;;;;;3.80;3.80;;;;;6.40;82.64;98328.59;5034520;28;8844;-60
2022/09/29 03:36:15;;;;;;;;;1.00;1.00;;;;;6.33;83.03;98324.81;5033953;28;8956;-60
2022/09/29 03:38:45;;;;;;;;;8.20;7.00;;;;;6.28;82.80;98327.03;5033808;28;8813;-61
2022/09/29 03:41:13;;;;;;;;;4.40;3.60;;;;;6.25;83.01;98329.09;5034126;28;9205;-60
2022/09/29 03:43:41;;;;;;;;;6.00;4.00;;;;;6.21;82.54;98325.91;5033823;28;8825;-60
2022/09/29 03:46:08;;;;;;;;;4.00;4.00;;;;;6.18;83.40;98330.63;5033768;28;8837;-60
2022/09/29 03:48:36;;;;;;;;;1.80;1.80;;;;;6.16;83.24;98332.56;5034014;28;8824;-60
2022/09/29 03:51:05;;;;;;;;;4.00;3.40;;;;;6.12;83.21;98332.00;5033935;28;8824;-61
2022/09/29 03:53:33;;;;;;;;;3.80;3.60;;;;;6.11;83.51;98334.75;5033853;28;9618;-61
2022/09/29 03:56:01;;;;;;;;;5.20;5.20;;;;;6.09;83.47;98342.00;5033238;28;8837;-61
2022/09/29 03:58:28;;;;;;;;;4.40;4.00;;;;;6.05;82.71;98344.06;5034225;28;8898;-60
2022/09/29 04:00:56;;;;;;;;;4.80;4.80;;;;;6.02;83.08;98330.28;5033731;28;8813;-61
2022/09/29 04:03:23;;;;;;;;;3.20;3.20;;;;;5.98;83.46;98344.72;5033105;28;8845;-61
2022/09/29 04:05:51;;;;;;;;;5.20;4.40;;;;;5.95;83.67;98343.19;5034013;28;8816;-60
2022/09/29 04:08:19;;;;;;;;;5.60;4.00;;;;;5.90;83.82;98332.19;5033897;28;8821;-60
2022/09/29 04:10:47;;;;;;;;;3.40;3.40;;;;;5.87;82.92;98350.94;5033512;28;8898;-60
2022/09/29 04:13:14;;;;;;;;;0.40;0.40;;;;;5.84;83.72;98342.44;5033572;28;8847;-60
2022/09/29 04:15:46;;;;;;;;;3.80;3.00;;;;;5.83;83.62;98348.69;5033582;28;8832;-60
2022/09/29 04:18:14;;;;;;;;;6.60;6.20;;;;;5.79;83.43;98348.13;5033091;28;8820;-61
2022/09/29 04:20:42;;;;;;;;;7.80;6.60;;;;;5.77;83.53;98351.84;5032805;28;8853;-61
2022/09/29 04:23:10;;;;;;;;;5.60;5.60;;;;;5.75;83.33;98351.09;5032848;28;8841;-60
2022/09/29 04:25:37;;;;;;;;;5.60;4.00;;;;;5.72;83.96;98354.88;5033035;28;8829;-61
2022/09/29 04:28:05;;;;;;;;;4.40;4.40;;;;;5.70;83.53;98354.16;5033043;28;8879;-61
2022/09/29 04:30:33;;;;;;;;;7.40;6.80;;;;;5.68;83.89;98357.91;5032916;28;8836;-60
2022/09/29 04:33:00;;;;;;;;;7.40;5.20;;;;;5.67;83.80;98362.34;5032740;28;8841;-60
2022/09/29 04:35:28;;;;;;;;;9.40;8.60;;;;;5.64;83.61;98367.88;5032798;28;8821;-62
2022/09/29 04:38:02;;;;;;;;;8.60;7.80;;;;;5.63;83.81;98366.19;5033193;28;8824;-60
2022/09/29 04:40:30;;;;;;;;;6.60;6.60;;;;;5.64;83.78;98372.31;5033623;28;8845;-61
2022/09/29 04:42:58;;;;;;;;;6.60;6.00;;;;;5.63;83.65;98368.84;5032711;28;8833;-60
2022/09/29 04:45:25;;;;;;;;;3.80;2.80;;;;;5.62;83.49;98372.44;5033638;28;8857;-63
2022/09/29 04:47:53;;;;;;;;;6.00;4.40;;;;;5.60;83.23;98368.25;5032406;28;8957;-60
2022/09/29 04:50:21;;;;;;;;;3.60;3.60;;;;;5.57;83.54;98365.88;5032975;28;9518;-63
2022/09/29 04:52:49;;;;;;;;;6.80;6.60;;;;;5.55;83.58;98375.75;5032662;28;8821;-61
2022/09/29 04:55:17;;;;;;;;;5.00;5.00;;;;;5.52;83.98;98368.06;5032794;28;8833;-60
2022/09/29 04:57:45;;;;;;;;;6.00;4.00;;;;;5.51;83.19;98369.03;5032984;28;8857;-61
2022/09/29 05:00:12;;;;;;;;;6.80;6.20;;;;;5.49;83.92;98370.97;5032407;28;8844;-61
2022/09/29 05:02:40;;;;;;;;;3.00;2.20;;;;;5.48;83.66;98372.75;5032355;28;9540;-62
2022/09/29 05:05:12;;;;;;;;;2.20;2.20;;;;;5.48;83.86;98374.59;5032599;28;8880;-61
2022/09/29 05:07:40;;;;;;;;;4.80;4.00;;;;;5.46;83.38;98371.25;5032941;28;8828;-62
2022/09/29 05:10:08;;;;;;;;;4.40;4.40;;;;;5.44;83.37;98368.72;5031873;28;8821;-61
2022/09/29 05:12:35;;;;;;;;;3.40;3.40;;;;;5.45;83.67;98382.75;5032062;28;8873;-60
2022/09/29 05:15:04;;;;;;;;;5.00;4.80;;;;;5.43;83.45;98380.25;5031756;28;8829;-61
2022/09/29 05:17:32;;;;;;;;;6.80;6.80;;;;;5.42;83.20;98380.38;5031750;28;8901;-62
2022/09/29 05:20:00;;;;;;;;;6.40;6.00;;;;;5.40;83.43;98383.13;5030718;28;9057;-60
2022/09/29 05:22:27;;;;;;;;;8.60;7.40;;;;;5.38;83.74;98381.63;5029666;28;8841;-60
2022/09/29 05:24:55;;;;;;;;;7.00;6.60;;;;;5.35;83.39;98387.97;5030191;28;8836;-60
2022/09/29 05:27:23;;;;;;;;;6.00;6.00;;;;;5.33;84.19;98384.59;5030494;28;8817;-60
2022/09/29 05:29:50;;;;;;;;;7.80;6.60;;;;;5.32;84.10;98390.03;5030384;28;8849;-60
2022/09/29 05:32:18;;;;;;;;;6.60;6.60;;;;;5.31;83.45;98388.38;5029942;28;8871;-60
2022/09/29 05:34:46;;;;;;;;;8.20;7.40;;;;;5.30;84.03;98394.56;5030172;28;8836;-62
2022/09/29 05:37:13;;;;;;;;;8.20;6.40;;;;;5.28;83.64;98393.88;5030060;28;8885;-62
2022/09/29 05:39:43;;;;;;;;;3.60;3.60;;;;;5.26;83.79;98404.56;5031073;28;8853;-61
2022/09/29 05:42:11;;;;;;;;;4.00;4.00;;;;;5.24;83.91;98401.22;5031088;28;9233;-61
2022/09/29 05:44:39;;;;;;;;;6.40;6.00;;;;;5.23;83.79;98393.44;5031205;28;8817;-62
2022/09/29 05:47:07;;;;;;;;;4.80;4.00;;;;;5.23;83.56;98404.00;5031435;28;8859;-59
2022/09/29 05:49:35;;;;;;;;;4.00;3.00;;;;;5.22;83.18;98410.22;5030108;28;8829;-61
2022/09/29 05:52:03;;;;;;;;;7.00;6.00;;;;;5.21;83.83;98408.53;5029846;28;8844;-60
2022/09/29 05:54:31;;;;;;;;;3.00;3.00;;;;;5.21;83.38;98408.53;5029467;28;8841;-60
2022/09/29 05:56:59;;;;;;;;;3.20;2.60;;;;;5.22;83.51;98412.84;5029086;28;8875;-62
2022/09/29 05:59:27;;;;;;;;;3.20;3.20;;;;;5.26;83.30;98414.28;5028530;28;8828;-60
2022/09/29 06:01:54;;;;;;;;;6.00;5.60;;;;;5.28;83.10;98412.34;5028329;28;8833;-60
2022/09/29 06:04:22;;;;;;;;;3.60;3.60;;;;;5.33;83.45;98413.63;5028906;28;8967;-60
2022/09/29 06:06:50;;;;;;;;;4.80;2.60;;;;;5.37;83.04;98412.44;5029349;28;9614;-60
2022/09/29 06:09:18;;;;;;;;;4.00;4.00;;;;;5.43;83.49;98421.63;5030221;28;8841;-62
2022/09/29 06:11:46;;;;;;;;;4.40;4.40;;;;;5.46;83.02;98416.94;5026640;28;8865;-60
2022/09/29 06:14:13;;;;;;;;;3.80;3.80;;;;;5.54;83.50;98421.59;5027614;28;8821;-60
2022/09/29 06:16:41;;;;;;;;;5.80;5.00;;;;;5.64;82.84;98419.84;5026228;28;8909;-61
2022/09/29 06:19:09;;;;;;;;;3.80;3.20;;;;;5.75;83.06;98417.97;5025211;28;8841;-61
2022/09/29 06:21:38;;;;;;;;;7.00;6.20;;;;;5.83;82.61;98418.19;5026205;28;8844;-60
2022/09/29 06:24:07;;;;;;;;;6.80;6.00;;;;;5.93;82.72;98421.72;5026873;28;8911;-60
2022/09/29 06:26:35;;;;;;;;;7.00;7.00;;;;;6.05;82.02;98422.47;5026599;28;8832;-62
2022/09/29 06:29:03;;;;;;;;;9.20;8.60;;;;;6.12;82.08;98423.63;5029756;28;8825;-60
2022/09/29 06:31:30;;;;;;;;;8.20;8.20;;;;;6.15;82.09;98420.75;5031183;28;8841;-60
2022/09/29 06:33:59;;;;;;;;;7.00;6.40;;;;;6.19;81.46;98422.13;5031437;28;8913;-60
2022/09/29 06:39:11;;;;;;;;;3.80;3.20;;;;;6.25;82.18;98432.19;5030858;28;9579;-61
2022/09/29 06:41:39;;;;;;;;;9.80;9.00;;;;;6.32;81.75;98428.88;5031919;28;8848;-60
2022/09/29 06:44:07;;;;;;;;;8.60;7.80;;;;;6.40;81.82;98430.84;5032529;28;8855;-62
2022/09/29 06:46:37;;;;;;;;;9.20;9.20;;;;;6.47;81.44;98432.00;5034051;28;8836;-61
2022/09/29 06:49:04;;;;;;;;;8.80;7.40;;;;;6.56;81.45;98433.81;5033144;28;8845;-61
2022/09/29 06:51:32;;;;;;;;;9.20;9.00;;;;;6.68;81.67;98433.59;5032911;28;8833;-61
2022/09/29 06:54:11;;;;;;;;;8.00;7.00;;;;;6.81;81.27;98442.13;5032458;28;8829;-63
2022/09/29 06:56:39;;;;;;;;;9.00;8.80;;;;;6.95;80.85;98438.25;5032536;28;9502;-62
2022/09/29 06:59:07;;;;;;;;;10.20;9.80;;;;;7.07;80.43;98442.44;5031946;28;8841;-61
2022/09/29 07:01:35;;;;;;;;;6.00;4.00;;;;;7.18;80.59;98443.16;5033155;28;8848;-60
2022/09/29 07:04:03;;;;;;;;;7.00;7.00;;;;;7.31;80.53;98449.03;5033158;28;8917;-63
2022/09/29 07:06:31;;;;;;;;;9.00;7.80;;;;;7.40;80.45;98444.69;5032674;28;8848;-59
2022/09/29 07:09:00;;;;;;;;;11.00;9.80;;;;;7.49;80.35;98450.00;5032242;28;8854;-60
2022/09/29 07:11:28;;;;;;;;;7.40;7.00;;;;;7.60;79.87;98449.03;5029565;28;8848;-61
2022/09/29 07:13:56;;;;;;;;;8.60;7.80;;;;;7.68;79.94;98448.19;5029099;28;8859;-60
2022/09/29 07:16:23;;;;;;;;;13.00;11.20;;;;;7.76;79.91;98445.66;5029038;28;8841;-60
2022/09/29 07:18:52;;;;;;;;;11.20;10.60;;;;;7.86;79.22;98457.09;5028535;28;8837;-62
2022/09/29 07:21:20;;;;;;;;;11.60;9.00;;;;;8.00;79.35;98453.97;5028515;28;8832;-60
2022/09/29 07:23:48;;;;;;;;;9.50;9.00;;;;;8.15;78.90;98460.50;5029453;28;9189;-60
2022/09/29 07:26:17;;;;;;;;;9.00;5.75;;;;;8.31;79.03;98454.66;5030554;28;8852;-60
2022/09/29 07:28:44;;;;;;;;;12.75;10.25;;;;;8.45;78.49;98452.34;5031049;28;8836;-61
2022/09/29 07:31:12;;;;;;;;;11.75;11.75;;;;;8.60;78.79;98461.50;5031276;28;8909;-62
2022/09/29 07:33:42;;;;;;;;;9.00;8.50;;;;;8.74;77.95;98458.38;5030127;28;9519;-61
2022/09/29 07:36:10;;;;;;;;;11.00;9.00;;;;;8.89;77.45;98461.38;5029444;28;8876;-60
2022/09/29 07:38:38;;;;;;;;;9.50;9.50;;;;;9.04;77.52;98450.09;5030105;28;8844;-61
2022/09/29 07:41:06;;;;;;;;;9.50;8.00;;;;;9.21;76.99;98457.28;5028956;28;8844;-61
2022/09/29 07:43:34;;;;;;;;;10.00;9.00;;;;;9.36;77.45;98455.78;5028771;28;8867;-61
2022/09/29 07:46:02;;;;;;;;;9.75;9.50;;;;;9.50;77.19;98462.38;5028658;28;8833;-60
2022/09/29 07:48:30;;;;;;;;;12.75;12.00;;;;;9.61;76.95;98454.16;5028961;28;8865;-60
2022/09/29 07:50:58;;;;;;;;;11.25;10.50;;;;;9.72;76.79;98465.41;5029510;28;9529;-61
2022/09/29 07:53:26;;;;;;;;;12.50;9.25;;;;;9.84;76.62;98458.03;5029084;28;8821;-60
2022/09/29 07:55:54;;;;;;;;;7.50;7.50;;;;;9.92;76.36;98461.59;5028545;28;8963;-61
2022/09/29 07:58:23;;;;;;;;;7.50;7.00;;;;;10.03;76.57;98449.91;5028294;28;8857;-60
2022/09/29 08:00:50;;;;;;;;;9.50;9.00;;;;;10.14;76.58;98453.16;5027973;28;8875;-60
2022/09/29 08:03:18;;;;;;;;;10.00;8.00;;;;;10.28;75.95;98451.75;5030485;28;8840;-61
2022/09/29 08:05:46;;;;;;;;;9.25;9.00;;;;;10.38;76.12;98455.97;5030898;28;9509;-60
2022/09/29 08:08:14;;;;;;;;;6.50;6.00;;;;;10.48;76.10;98455.84;5030161;28;9529;-60
2022/09/29 08:10:42;;;;;;;;;7.50;7.00;;;;;10.62;76.02;98463.25;5028091;28;8914;-60
2022/09/29 08:13:18;;;;;;;;;9.00;7.75;;;;;10.78;75.57;98464.16;5027524;28;8833;-61
2022/09/29 08:15:46;;;;;;;;;11.00;10.00;;;;;10.95;75.43;98465.91;5028036;28;8847;-62
2022/09/29 08:18:14;;;;;;;;;8.00;6.25;;;;;11.12;74.50;98461.47;5028159;28;8836;-60
2022/09/29 08:20:43;;;;;;;;;8.00;6.00;;;;;11.28;74.59;98459.69;5027817;28;8965;-61
2022/09/29 08:23:11;;;;;;;;;10.00;10.00;;;;;11.41;74.73;98460.06;5028307;28;8832;-60
2022/09/29 08:25:39;;;;;;;;;9.00;9.00;;;;;11.57;74.23;98459.22;5028275;28;8860;-62
2022/09/29 08:28:15;;;;;;;;;11.00;9.50;;;;;11.86;74.41;98457.81;5026929;28;8852;-61
2022/09/29 08:30:57;;;;;;;;;7.50;7.50;;;;;12.20;73.38;98467.31;5027129;28;8904;-61
2022/09/29 08:33:31;;;;;;;;;9.25;9.25;;;;;12.46;73.04;98467.09;5028903;28;8849;-60
2022/09/29 08:35:58;;;;;;;;;7.50;7.25;;;;;12.60;73.49;98469.09;5029147;28;8852;-61
2022/09/29 08:38:26;;;;;;;;;11.25;9.50;;;;;12.77;73.02;98478.72;5029592;28;8851;-61
2022/09/29 08:40:54;;;;;;;;;6.25;6.25;;;;;12.88;72.77;98478.31;5028937;28;8844;-60
2022/09/29 08:43:22;;;;;;;;;7.00;7.00;;;;;12.94;73.05;98477.63;5028522;28;8875;-61
2022/09/29 08:46:01;;;;;;;;;9.00;8.00;;;;;12.93;73.17;98478.66;5027413;28;8832;-61
2022/09/29 08:48:29;;;;;;;;;6.25;6.25;;;;;12.94;72.69;98482.97;5026623;28;8844;-61
2022/09/29 08:50:57;;;;;;;;;9.25;9.25;;;;;12.93;72.77;98476.78;5025616;28;8836;-61
2022/09/29 08:53:25;;;;;;;;;10.50;9.50;;;;;12.98;73.24;98481.69;5025434;28;8825;-62
2022/09/29 08:55:56;;;;;;;;;7.00;7.00;;;;;13.04;72.43;98488.97;5026384;28;8829;-61
2022/09/29 08:58:23;;;;;;;;;10.50;9.00;;;;;13.10;72.81;98488.28;5026815;28;8973;-61
2022/09/29 09:00:51;;;;;;;;;10.50;8.50;;;;;13.14;72.86;98490.44;5026740;28;9639;-62
2022/09/29 09:03:20;;;;;;;;;9.25;8.50;;;;;13.17;72.34;98492.78;5027661;28;8848;-61
2022/09/29 09:05:47;;;;;;;;;9.00;8.00;;;;;13.23;72.77;98497.41;5026672;28;9110;-61
2022/09/29 09:08:15;;;;;;;;;11.00;8.00;;;;;13.29;72.78;98490.56;5026999;28;8972;-61
2022/09/29 09:10:46;;;;;;;;;12.75;12.00;;;;;13.35;72.10;98492.53;5026183;28;8988;-61
2022/09/29 09:13:14;;;;;;;;;6.50;5.75;;;;;13.44;72.58;98491.50;5025525;28;8833;-61
2022/09/29 09:15:42;;;;;;;;;9.25;7.00;;;;;13.52;71.93;98494.13;5026034;28;8913;-60
2022/09/29 09:18:11;;;;;;;;;10.25;7.50;;;;;13.65;71.40;98489.84;5026519;28;8829;-61
2022/09/29 09:20:38;;;;;;;;;4.00;4.00;;;;;13.76;71.20;98494.81;5025478;28;8852;-61
2022/09/29 09:23:06;;;;;;;;;11.50;10.50;;;;;13.84;71.78;98499.25;5025399;28;8832;-60
2022/09/29 09:25:35;;;;;;;;;9.00;8.00;;;;;13.84;72.00;98496.56;5025117;28;8855;-61
2022/09/29 09:28:03;;;;;;;;;12.25;10.00;;;;;13.86;71.77;98502.56;5023277;28;8825;-61
2022/09/29 09:30:31;;;;;;;;;9.00;8.00;;;;;13.86;72.04;98491.88;5023345;28;8833;-61
2022/09/29 09:32:59;;;;;;;;;11.00;11.00;;;;;13.83;71.73;98498.41;5024704;28;9637;-60
2022/09/29 09:35:27;;;;;;;;;12.00;11.00;;;;;13.88;72.21;98496.03;5024852;28;8816;-60
2022/09/29 09:37:55;;;;;;;;;6.50;6.25;;;;;14.00;71.38;98493.78;5025113;28;8857;-60
2022/09/29 09:40:24;;;;;;;;;12.00;9.00;;;;;14.16;70.96;98489.13;5024197;28;8991;-60
2022/09/29 09:42:52;;;;;;;;;5.00;5.00;;;;;14.32;70.94;98488.19;5023397;28;8855;-61
2022/09/29 09:45:20;;;;;;;;;8.50;7.00;;;;;14.30;71.38;98495.56;5025280;28;8833;-61
2022/09/29 09:47:48;;;;;;;;;8.25;7.50;;;;;14.16;71.46;98499.84;5024952;28;8833;-60
2022/09/29 09:50:16;;;;;;;;;9.75;9.00;;;;;14.11;71.63;98496.06;5024677;28;9588;-60
2022/09/29 09:52:44;;;;;;;;;9.00;9.00;;;;;14.33;71.47;98504.06;5023737;28;8845;-60
2022/09/29 09:55:13;;;;;;;;;9.75;9.75;;;;;14.92;70.68;98495.13;5025009;28;9529;-61
2022/09/29 09:57:41;;;;;;;;;9.75;7.00;;;;;15.55;69.43;98489.97;5024062;28;9541;-61
2022/09/29 10:00:09;;;;;;;;;8.50;8.00;;;;;15.55;69.57;98494.53;5025035;28;8833;-61
2022/09/29 10:02:38;;;;;;;;;8.00;7.50;;;;;15.65;70.00;98495.06;5028103;28;8859;-61
2022/09/29 10:05:06;;;;;;;;;9.75;7.50;;;;;15.88;68.74;98496.56;5028648;28;8829;-61
2022/09/29 10:07:36;;;;;;;;;7.50;7.00;;;;;15.66;69.81;98496.72;5028213;28;8848;-60
2022/09/29 10:10:04;;;;;;;;;5.00;4.00;;;;;15.28;70.48;98497.88;5027513;28;9614;-61
2022/09/29 10:12:31;;;;;;;;;7.00;7.00;;;;;15.58;70.17;98497.66;5028024;28;8825;-62
2022/09/29 10:14:59;;;;;;;;;8.00;7.00;;;;;16.39;68.37;98495.41;5027985;28;8847;-61
2022/09/29 10:17:27;;;;;;;;;4.50;4.50;;;;;17.41;66.45;98492.81;5026603;28;8873;-60
2022/09/29 10:19:55;;;;;;;;;7.00;7.00;;;;;18.48;63.65;98482.72;5027466;28;8841;-60
2022/09/29 10:22:23;;;;;;;;;7.80;7.80;;;;;19.47;61.96;98476.94;5026801;28;9566;-61
2022/09/29 10:24:51;;;;;;;;;7.40;6.40;;;;;20.02;60.71;98481.66;5027291;28;8859;-61
2022/09/29 10:27:19;;;;;;;;;7.00;7.00;;;;;19.58;62.26;98481.66;5027065;28;8837;-61
2022/09/29 10:29:48;;;;;;;;;4.00;4.00;;;;;19.52;62.91;98484.41;5026996;28;8829;-62
2022/09/29 10:32:16;;;;;;;;;7.00;7.00;;;;;19.49;63.30;98488.34;5026579;28;8971;-61
2022/09/29 10:34:44;;;;;;;;;7.00;6.40;;;;;19.48;63.56;98485.84;5026506;28;8841;-62
2022/09/29 10:37:12;;;;;;;;;6.00;5.40;;;;;19.42;64.08;98492.13;5027482;28;8862;-61
2022/09/29 10:39:41;;;;;;;;;7.00;7.00;;;;;19.51;64.10;98486.25;5027816;28;9524;-63
2022/09/29 10:42:10;;;;;;;;;6.20;6.20;;;;;19.87;62.70;98489.22;5023905;28;8881;-61
2022/09/29 10:44:38;;;;;;;;;8.00;6.60;;;;;20.07;62.73;98492.66;5024402;28;8880;-62
2022/09/29 10:47:06;;;;;;;;;4.00;4.00;;;;;20.20;62.21;98491.75;5023579;28;9182;-61
2022/09/29 10:49:33;;;;;;;;;7.60;6.60;;;;;20.18;62.19;98486.56;5025096;28;8840;-61
2022/09/29 10:52:02;;;;;;;;;5.00;5.00;;;;;20.20;61.76;98498.00;5024815;28;8856;-60
2022/09/29 10:54:30;;;;;;;;;7.40;5.40;;;;;20.49;60.73;98499.25;5026938;28;9000;-62
2022/09/29 10:56:58;;;;;;;;;7.00;5.00;;;;;20.47;60.63;98499.44;5029576;28;8848;-60
2022/09/29 10:59:26;;;;;;;;;7.40;7.00;;;;;19.81;62.08;98505.47;5029610;28;8841;-60
2022/09/29 11:01:54;;;;;;;;;7.60;5.00;;;;;19.10;63.97;98507.34;5031733;28;8959;-60
2022/09/29 11:04:22;;;;;;;;;4.00;4.00;;;;;18.85;64.99;98508.22;5030925;28;8925;-61
2022/09/29 11:06:50;;;;;;;;;6.60;6.00;;;;;18.60;64.82;98510.72;5029614;28;8916;-61
2022/09/29 11:09:18;;;;;;;;;9.00;7.20;;;;;18.95;63.31;98505.91;5031023;28;8832;-60
2022/09/29 11:11:46;;;;;;;;;6.00;4.00;;;;;19.35;63.32;98513.75;5031287;28;8867;-61
2022/09/29 11:14:14;;;;;;;;;6.00;5.80;;;;;19.48;62.72;98508.31;5030600;28;8841;-61
2022/09/29 11:16:42;;;;;;;;;6.00;6.00;;;;;19.11;63.10;98514.41;5031490;28;9029;-61
2022/09/29 11:19:10;;;;;;;;;7.00;7.00;;;;;18.55;65.01;98531.25;5031132;28;8868;-63
2022/09/29 11:21:38;;;;;;;;;6.00;4.40;;;;;17.95;66.15;98521.41;5030248;28;8925;-61
2022/09/29 11:24:06;;;;;;;;;6.00;5.20;;;;;17.49;67.09;98536.56;5029427;28;8951;-61
2022/09/29 11:26:34;;;;;;;;;6.80;6.40;;;;;17.15;67.92;98541.09;5029778;28;8864;-62
2022/09/29 11:29:02;;;;;;;;;4.40;4.40;;;;;17.11;67.91;98535.28;5029939;28;8844;-62
2022/09/29 11:31:30;;;;;;;;;8.20;7.00;;;;;17.18;67.76;98548.75;5029727;28;8867;-62
2022/09/29 11:33:58;;;;;;;;;6.40;6.40;;;;;17.18;67.57;98538.00;5030168;28;8851;-61
2022/09/29 11:36:26;;;;;;;;;3.60;3.60;;;;;17.45;66.90;98543.34;5030273;28;8920;-61
2022/09/29 11:38:54;;;;;;;;;1.00;0.20;;;;;18.61;64.36;98531.25;5030748;28;8844;-62
2022/09/29 11:41:22;;;;;;;;;4.40;4.40;;;;;20.18;60.52;98526.31;5029052;28;8856;-61
2022/09/29 11:43:50;;;;;;;;;4.40;4.40;;;;;21.60;58.09;98524.19;5029255;28;8861;-62
2022/09/29 11:46:19;;;;;;;;;0.00;0.00;;;;;21.45;58.21;98526.47;5028436;28;9522;-61
2022/09/29 11:48:46;;;;;;;;;4.20;4.20;;;;;20.65;60.19;98529.31;5028382;28;8849;-61
2022/09/29 11:51:14;;;;;;;;;4.60;3.60;;;;;19.88;62.01;98536.81;5027933;28;8832;-61
2022/09/29 11:53:43;;;;;;;;;4.00;3.20;;;;;19.23;63.70;98541.59;5027851;28;8927;-61